Terminal Aerodrome Forecast
Issued by NWS Louisville, KY

Home | Current Version | Previous Version | Text Only | Print | Product List | Glossary On
Versions: 1 2 3 4 5 6 7 8 9 10 11 12 13 14
642
FTUS43 KLMK 141720
TAFSDF
TAF
KSDF 141720Z 1418/1524 36009KT P6SM BKN035
     FM150200 VRB03KT P6SM BKN035
     FM151400 26012G18KT P6SM FEW060 SCT200=

USA.gov is the U.S. government's official web portal to all federal, state and local government web resources and services.